Time;durP1;ratioP1;P1;durP2;ratioP2;P2;SDS_P1;SDS_P2;PMS_P1;PMS_P2;Temp;Humidity;BMP_temperature;BMP_pressure;BME280_temperature;BME280_humidity;BME280_pressure;Samples;Min_cycle;Max_cycle;Signal;HPM_P1;HPM_P2
2021/07/24 00:01:24;;;;;;;9.53;6.67;;;;;;;19.92;59.10;99341.71;1715587;82;20969;-40
2021/07/24 00:03:51;;;;;;;10.58;6.80;;;;;;;19.92;58.95;99344.45;1748776;82;21542;-40
2021/07/24 00:06:18;;;;;;;9.75;6.72;;;;;;;19.91;58.77;99334.64;1748829;82;21100;-40
2021/07/24 00:08:45;;;;;;;10.50;6.37;;;;;;;19.91;58.81;99342.90;1748668;82;21009;-40
2021/07/24 00:11:12;;;;;;;9.60;6.65;;;;;;;19.89;58.88;99341.19;1748803;82;21491;-40
2021/07/24 00:13:40;;;;;;;9.40;7.00;;;;;;;19.87;58.70;99347.11;1748686;82;20965;-40
2021/07/24 00:16:06;;;;;;;11.78;6.55;;;;;;;19.85;58.61;99352.84;1748791;82;21016;-40
2021/07/24 00:18:33;;;;;;;9.20;6.33;;;;;;;19.82;58.72;99349.56;1748615;82;21102;-40
2021/07/24 00:21:01;;;;;;;9.60;6.50;;;;;;;19.78;58.84;99352.98;1748931;82;20922;-40
2021/07/24 00:23:27;;;;;;;9.80;6.55;;;;;;;19.74;58.87;99355.03;1748787;82;21537;-40
2021/07/24 00:25:54;;;;;;;11.75;6.87;;;;;;;19.72;58.87;99355.44;1775380;80;21131;-40
2021/07/24 00:28:20;;;;;;;11.15;7.03;;;;;;;19.69;58.84;99359.64;1779775;80;21028;-40
2021/07/24 00:30:47;;;;;;;10.65;6.70;;;;;;;19.66;58.82;99356.33;1779614;80;21181;-40
2021/07/24 00:33:15;;;;;;;9.80;6.53;;;;;;;19.62;58.77;99353.66;1778778;80;21562;-40
2021/07/24 00:35:42;;;;;;;11.60;7.30;;;;;;;19.58;58.79;99354.32;1779669;80;21547;-40
2021/07/24 00:38:09;;;;;;;10.48;6.97;;;;;;;19.56;58.86;99357.33;1779686;80;21077;-40
2021/07/24 00:40:44;;;;;;;8.28;6.05;;;;;;;19.52;58.85;99354.02;1780146;80;21072;-40
2021/07/24 00:43:11;;;;;;;10.55;6.47;;;;;;;19.49;58.94;99359.00;1779578;80;21797;-40
2021/07/24 00:45:47;;;;;;;11.80;6.85;;;;;;;19.45;59.04;99355.53;1779516;80;20882;-40
2021/07/24 00:48:22;;;;;;;9.73;6.05;;;;;;;19.43;58.94;99359.26;1774300;80;21000;-39
2021/07/24 00:51:03;;;;;;;11.53;6.47;;;;;;;19.39;59.13;99351.67;1708833;80;21037;-40
2021/07/24 00:53:38;;;;;;;9.80;6.80;;;;;;;19.36;59.28;99360.77;1774008;80;20994;-40
2021/07/24 00:56:04;;;;;;;14.45;6.75;;;;;;;19.36;59.41;99353.12;1772735;80;21200;-40
2021/07/24 00:58:35;;;;;;;12.82;7.33;;;;;;;19.33;59.46;99349.22;1773787;80;20913;-40
2021/07/24 01:01:04;;;;;;;9.18;6.65;;;;;;;19.33;59.45;99346.47;1767725;80;20993;-40
2021/07/24 01:03:33;;;;;;;9.73;6.08;;;;;;;19.32;59.53;99350.41;1752235;80;21008;-40
2021/07/24 01:06:00;;;;;;;9.98;6.87;;;;;;;19.31;59.56;99348.09;1774076;80;21092;-40
2021/07/24 01:08:33;;;;;;;10.10;7.00;;;;;;;19.30;59.29;99348.69;1773965;80;21129;-40
2021/07/24 01:11:00;;;;;;;10.03;7.03;;;;;;;19.27;59.13;99346.76;1777353;80;21532;-40
2021/07/24 01:13:28;;;;;;;9.88;6.62;;;;;;;19.24;59.26;99346.23;1773844;80;21020;-39
2021/07/24 01:15:55;;;;;;;9.25;6.25;;;;;;;19.23;59.52;99346.05;1767724;80;20969;-40
2021/07/24 01:18:24;;;;;;;7.35;6.20;;;;;;;19.24;59.55;99348.20;1773847;80;21049;-40
2021/07/24 01:20:53;;;;;;;10.68;6.47;;;;;;;19.27;59.43;99348.13;1773891;80;21137;-40
2021/07/24 01:23:20;;;;;;;10.90;6.33;;;;;;;19.32;59.45;99343.53;1774218;80;20990;-40
2021/07/24 01:25:50;;;;;;;10.70;6.92;;;;;;;19.33;59.31;99346.47;1751717;80;20922;-40
2021/07/24 01:28:24;;;;;;;9.48;6.40;;;;;;;19.34;59.20;99346.66;1774141;80;21081;-40
2021/07/24 01:30:52;;;;;;;8.40;6.25;;;;;;;19.34;59.15;99352.16;1774037;80;21017;-40
2021/07/24 01:33:19;;;;;;;12.55;6.70;;;;;;;19.33;59.17;99344.31;1751608;80;21833;-40
2021/07/24 01:35:48;;;;;;;9.05;6.40;;;;;;;19.35;59.28;99346.06;1774208;80;20930;-40
2021/07/24 01:38:16;;;;;;;10.58;6.72;;;;;;;19.34;59.43;99346.66;1773930;80;21590;-40
2021/07/24 01:40:43;;;;;;;9.53;6.60;;;;;;;19.32;59.22;99347.66;1774159;80;21072;-40
2021/07/24 01:43:10;;;;;;;12.00;6.28;;;;;;;19.28;59.12;99346.94;1774073;80;20965;-40
2021/07/24 01:45:40;;;;;;;10.08;7.08;;;;;;;19.25;58.92;99347.79;1774125;80;21103;-40
2021/07/24 01:48:16;;;;;;;9.70;7.30;;;;;;;19.23;59.06;99350.17;1780110;80;20917;-39
2021/07/24 01:53:30;;;;;;;14.93;7.30;;;;;;;19.15;59.23;99354.83;1782117;80;21008;-40
2021/07/24 01:56:02;;;;;;;13.13;7.40;;;;;;;19.11;59.28;99356.27;1782219;80;21029;-40
2021/07/24 01:58:34;;;;;;;12.00;6.80;;;;;;;19.08;59.44;99356.48;1782150;80;21135;-40
2021/07/24 02:01:18;;;;;;;9.08;6.87;;;;;;;19.05;59.44;99357.92;1781170;80;20980;-40
2021/07/24 02:03:48;;;;;;;9.15;7.33;;;;;;;19.00;59.50;99351.52;1751742;80;21518;-39
2021/07/24 02:06:19;;;;;;;13.43;6.62;;;;;;;18.98;59.51;99360.77;1781310;80;21609;-39
2021/07/24 02:08:50;;;;;;;11.63;7.17;;;;;;;18.95;59.77;99357.48;1780015;80;21522;-40
2021/07/24 02:11:20;;;;;;;10.20;6.75;;;;;;;18.91;60.03;99355.39;1782238;80;21111;-40
2021/07/24 02:13:48;;;;;;;7.53;6.42;;;;;;;18.90;60.10;99355.20;1782295;80;20964;-40
2021/07/24 02:16:14;;;;;;;8.40;6.72;;;;;;;18.93;60.03;99359.27;1751243;80;20937;-40
2021/07/24 02:18:41;;;;;;;13.25;7.53;;;;;;;18.96;59.88;99357.08;1782142;80;21039;-40
2021/07/24 02:21:10;;;;;;;11.50;7.90;;;;;;;18.96;59.92;99361.80;1779163;80;21024;-40
2021/07/24 02:23:37;;;;;;;10.15;7.20;;;;;;;18.96;59.99;99363.17;1781958;80;21117;-40
2021/07/24 02:26:04;;;;;;;10.32;7.25;;;;;;;18.96;60.00;99356.30;1782140;80;21475;-40
2021/07/24 02:28:32;;;;;;;10.85;7.65;;;;;;;18.98;60.25;99363.52;1782186;80;20960;-40
2021/07/24 02:30:59;;;;;;;8.75;7.20;;;;;;;18.97;60.02;99362.77;1781991;80;21004;-40
2021/07/24 02:33:26;;;;;;;9.80;7.45;;;;;;;18.96;59.89;99361.20;1782154;80;21084;-40
2021/07/24 02:35:53;;;;;;;8.25;7.25;;;;;;;18.95;59.77;99358.27;1751454;80;21082;-40
2021/07/24 02:38:21;;;;;;;9.75;7.00;;;;;;;18.95;59.87;99358.27;1781531;80;20925;-40
2021/07/24 02:40:48;;;;;;;11.53;7.53;;;;;;;18.93;59.85;99357.89;1782183;80;20930;-40
2021/07/24 02:43:16;;;;;;;11.57;7.53;;;;;;;18.92;59.50;99361.08;1782141;80;21037;-40
2021/07/24 02:45:43;;;;;;;13.20;7.87;;;;;;;18.90;59.94;99359.33;1782084;80;21025;-40
2021/07/24 02:48:11;;;;;;;12.23;7.17;;;;;;;18.88;60.11;99359.73;1776630;80;21847;-40
2021/07/24 02:50:39;;;;;;;9.98;7.40;;;;;;;18.87;60.33;99361.54;1773096;80;20961;-40
2021/07/24 02:53:06;;;;;;;8.88;7.10;;;;;;;18.85;60.58;99363.32;1774064;80;21955;-40
2021/07/24 02:55:34;;;;;;;9.98;6.47;;;;;;;18.84;61.04;99362.35;1751821;80;20985;-40
2021/07/24 02:58:01;;;;;;;15.65;8.53;;;;;;;18.86;61.53;99364.10;1773813;80;21005;-40
2021/07/24 03:00:28;;;;;;;21.90;9.78;;;;;;;18.90;61.92;99367.56;1773829;80;21194;-40
2021/07/24 03:02:55;;;;;;;13.00;7.08;;;;;;;18.91;62.16;99367.75;1773541;80;21003;-40
2021/07/24 03:05:21;;;;;;;9.83;6.87;;;;;;;18.93;62.21;99374.97;1774090;80;21084;-40
2021/07/24 03:07:48;;;;;;;10.98;7.60;;;;;;;18.94;61.99;99369.66;1773764;80;20977;-40
2021/07/24 03:10:16;;;;;;;21.95;9.33;;;;;;;18.92;61.16;99371.47;1773900;80;20995;-40
2021/07/24 03:12:43;;;;;;;9.85;6.95;;;;;;;18.91;61.18;99368.53;1773938;80;21801;-40
2021/07/24 03:15:12;;;;;;;9.93;7.20;;;;;;;18.89;60.50;99369.53;1773705;80;21527;-40
2021/07/24 03:17:38;;;;;;;13.05;7.72;;;;;;;18.83;60.07;99371.80;1773758;80;20998;-40
2021/07/24 03:20:07;;;;;;;9.08;7.03;;;;;;;18.75;59.94;99370.33;1773860;80;20969;-40
2021/07/24 03:22:34;;;;;;;11.15;7.03;;;;;;;18.68;60.20;99370.45;1773998;80;21026;-40
2021/07/24 03:25:01;;;;;;;9.55;6.87;;;;;;;18.62;60.51;99374.24;1773881;80;21118;-40
2021/07/24 03:27:27;;;;;;;12.78;6.90;;;;;;;18.59;60.82;99370.34;1772718;80;20996;-40
2021/07/24 03:29:54;;;;;;;8.83;6.72;;;;;;;18.55;61.04;99370.98;1767649;80;21037;-40
2021/07/24 03:32:21;;;;;;;9.00;6.35;;;;;;;18.54;61.38;99378.28;1773847;80;21008;-40
2021/07/24 03:34:48;;;;;;;8.45;6.20;;;;;;;18.58;61.58;99379.80;1773911;80;21005;-40
2021/07/24 03:37:15;;;;;;;10.50;6.75;;;;;;;18.64;61.87;99376.75;1774013;80;21838;-40
2021/07/24 03:39:42;;;;;;;10.98;6.65;;;;;;;18.73;61.99;99385.88;1774209;80;20918;-40
2021/07/24 03:42:09;;;;;;;9.13;6.62;;;;;;;18.81;62.21;99380.45;1773952;80;21035;-40
2021/07/24 03:44:36;;;;;;;14.25;6.97;;;;;;;18.87;62.20;99384.89;1774026;80;21010;-40
2021/07/24 03:47:04;;;;;;;8.18;6.30;;;;;;;18.90;62.11;99382.67;1774415;80;21013;-40
2021/07/24 03:49:31;;;;;;;8.28;6.20;;;;;;;18.88;62.37;99391.95;1781448;80;21137;-40
2021/07/24 03:51:58;;;;;;;9.65;6.50;;;;;;;18.89;62.37;99390.73;1782090;80;20968;-40
2021/07/24 03:54:26;;;;;;;9.88;6.60;;;;;;;18.91;62.32;99390.52;1782324;80;21519;-40
2021/07/24 03:56:53;;;;;;;10.58;6.90;;;;;;;18.95;62.32;99388.48;1782025;80;21008;-40
2021/07/24 03:59:20;;;;;;;7.50;6.55;;;;;;;18.96;62.08;99389.27;1782432;80;21079;-40
2021/07/24 04:01:48;;;;;;;9.60;6.80;;;;;;;18.97;62.08;99394.36;1782107;80;21530;-40
2021/07/24 04:04:16;;;;;;;8.88;6.17;;;;;;;19.01;61.66;99389.59;1782180;80;20945;-40
2021/07/24 04:06:43;;;;;;;12.03;6.97;;;;;;;19.13;61.32;99389.59;1782221;80;21036;-40
2021/07/24 04:09:09;;;;;;;7.83;6.47;;;;;;;19.22;60.19;99396.70;1782190;80;21554;-40
2021/07/24 04:11:36;;;;;;;12.30;6.45;;;;;;;19.28;60.13;99392.30;1782338;80;21065;-40
2021/07/24 04:14:04;;;;;;;10.53;6.78;;;;;;;19.34;59.66;99391.23;1782341;80;21126;-40
2021/07/24 04:16:33;;;;;;;7.78;6.33;;;;;;;19.40;59.51;99394.47;1782056;80;21073;-40
2021/07/24 04:19:03;;;;;;;11.17;6.63;;;;;;;19.46;58.90;99400.31;1782594;80;21460;-40
2021/07/24 04:21:30;;;;;;;8.35;6.45;;;;;;;19.50;59.19;99392.17;1781898;80;21049;-40
2021/07/24 04:23:56;;;;;;;11.08;6.30;;;;;;;19.53;58.79;99387.20;1782162;80;21035;-40
2021/07/24 04:26:24;;;;;;;9.20;6.72;;;;;;;19.53;58.93;99392.70;1782327;80;21899;-40
2021/07/24 04:28:51;;;;;;;8.10;6.70;;;;;;;19.58;59.04;99393.42;1782225;80;20994;-40
2021/07/24 04:31:19;;;;;;;10.23;7.15;;;;;;;19.60;59.01;99389.06;1782194;80;21016;-40
2021/07/24 04:33:46;;;;;;;10.28;7.22;;;;;;;19.58;58.64;99388.70;1782169;80;21476;-40
2021/07/24 04:36:13;;;;;;;8.75;7.15;;;;;;;19.57;58.56;99389.11;1782477;80;21483;-40
2021/07/24 04:38:41;;;;;;;11.65;7.10;;;;;;;19.58;58.83;99389.30;1782152;80;21914;-40
2021/07/24 04:41:07;;;;;;;10.53;7.10;;;;;;;19.61;59.44;99391.97;1782445;80;21000;-40
2021/07/24 04:43:34;;;;;;;10.20;7.12;;;;;;;19.66;59.34;99391.50;1781325;80;21083;-40
2021/07/24 04:46:00;;;;;;;8.90;6.95;;;;;;;19.70;59.60;99394.20;1782093;80;21029;-40
2021/07/24 04:48:27;;;;;;;10.90;7.40;;;;;;;19.74;59.11;99386.66;1782050;80;21093;-40
2021/07/24 04:50:56;;;;;;;9.28;6.70;;;;;;;19.74;59.32;99394.91;1782245;80;21822;-40
2021/07/24 04:53:22;;;;;;;11.68;7.10;;;;;;;19.76;59.29;99393.28;1782048;80;20933;-40
2021/07/24 04:55:49;;;;;;;10.38;6.80;;;;;;;19.77;59.49;99396.22;1782128;80;21035;-40
2021/07/24 04:58:16;;;;;;;10.63;7.35;;;;;;;19.83;59.81;99386.29;1782288;80;21898;-40
2021/07/24 05:00:45;;;;;;;13.93;7.33;;;;;;;19.95;59.60;99389.01;1782086;80;21471;-40
2021/07/24 05:03:16;;;;;;;10.08;7.25;;;;;;;20.09;59.40;99382.48;1781517;80;21097;-40
2021/07/24 05:05:43;;;;;;;8.60;7.30;;;;;;;20.17;59.31;99386.64;1782118;80;20976;-40
2021/07/24 05:08:11;;;;;;;11.65;7.10;;;;;;;20.26;59.07;99382.13;1782023;80;20973;-40
2021/07/24 05:10:38;;;;;;;9.98;6.85;;;;;;;20.33;59.51;99383.37;1752176;80;21452;-40
2021/07/24 05:13:04;;;;;;;11.30;7.03;;;;;;;20.44;59.13;99387.89;1782174;80;21357;-40
2021/07/24 05:15:31;;;;;;;11.43;7.62;;;;;;;20.54;59.24;99382.16;1782280;80;21141;-40
2021/07/24 05:17:58;;;;;;;9.40;7.10;;;;;;;20.62;58.93;99385.56;1780994;80;21024;-40
2021/07/24 05:20:26;;;;;;;9.38;6.87;;;;;;;20.69;58.71;99382.03;1782217;80;20953;-40
2021/07/24 05:22:54;;;;;;;11.57;7.15;;;;;;;20.79;58.05;99383.00;1782333;80;21630;-40
2021/07/24 05:25:21;;;;;;;9.63;7.08;;;;;;;20.83;58.19;99382.31;1782109;80;21586;-40
2021/07/24 05:27:48;;;;;;;9.35;7.47;;;;;;;20.92;58.44;99387.23;1782067;80;22037;-40
2021/07/24 05:30:15;;;;;;;9.65;7.45;;;;;;;21.03;58.07;99386.40;1782078;80;21498;-41
2021/07/24 05:32:42;;;;;;;9.38;7.30;;;;;;;21.12;58.06;99387.95;1782032;80;20898;-40
2021/07/24 05:35:10;;;;;;;8.98;7.45;;;;;;;21.21;58.04;99387.56;1782267;80;20989;-40
2021/07/24 05:37:37;;;;;;;12.45;7.65;;;;;;;21.32;57.88;99382.39;1782322;80;21072;-41
2021/07/24 05:40:05;;;;;;;12.15;7.83;;;;;;;21.40;57.26;99381.00;1782265;80;21062;-40
2021/07/24 05:42:32;;;;;;;8.50;7.05;;;;;;;21.47;57.01;99382.22;1782145;80;20949;-40
2021/07/24 05:44:59;;;;;;;8.93;7.25;;;;;;;21.53;56.93;99384.64;1781725;80;20953;-40
2021/07/24 05:47:26;;;;;;;9.45;7.55;;;;;;;21.57;56.58;99385.31;1782088;80;20981;-40
2021/07/24 05:49:53;;;;;;;10.90;7.20;;;;;;;21.58;56.59;99388.25;1782365;80;21021;-40
2021/07/24 05:52:20;;;;;;;8.20;6.95;;;;;;;21.62;56.63;99388.94;1782496;80;21550;-41
2021/07/24 05:54:47;;;;;;;10.98;7.40;;;;;;;21.69;56.59;99390.89;1782541;80;21008;-40
2021/07/24 05:57:14;;;;;;;10.13;6.85;;;;;;;21.75;56.39;99386.23;1782504;80;21483;-40
2021/07/24 05:59:41;;;;;;;9.78;7.20;;;;;;;21.80;56.22;99383.72;1782455;80;21348;-40
2021/07/24 06:02:07;;;;;;;8.53;7.42;;;;;;;21.86;56.51;99386.73;1782506;80;21025;-40
2021/07/24 06:04:34;;;;;;;10.08;7.05;;;;;;;21.93;56.83;99386.56;1782398;80;21495;-40
2021/07/24 06:07:01;;;;;;;8.68;7.22;;;;;;;22.01;56.40;99385.95;1782472;80;21606;-40
2021/07/24 06:09:28;;;;;;;8.48;7.33;;;;;;;22.16;56.07;99385.56;1782656;80;21037;-40
2021/07/24 06:11:55;;;;;;;9.58;6.90;;;;;;;22.28;55.82;99380.67;1782441;80;21033;-40
2021/07/24 06:14:23;;;;;;;7.95;6.75;;;;;;;22.38;55.15;99380.98;1782581;80;21049;-41
2021/07/24 06:16:52;;;;;;;10.25;6.87;;;;;;;22.46;54.71;99385.85;1782466;80;21099;-40
2021/07/24 06:19:19;;;;;;;9.95;6.47;;;;;;;22.53;54.23;99375.98;1782369;80;21602;-41
2021/07/24 06:21:46;;;;;;;7.65;6.60;;;;;;;22.59;53.98;99383.13;1782374;80;20941;-41
2021/07/24 06:24:16;;;;;;;7.67;6.80;;;;;;;22.67;53.87;99384.45;1782390;80;21872;-41
2021/07/24 06:26:43;;;;;;;6.87;6.17;;;;;;;22.77;53.18;99393.06;1782522;80;21068;-41
2021/07/24 06:29:10;;;;;;;9.40;6.85;;;;;;;22.83;51.70;99393.30;1782496;80;21090;-41
2021/07/24 06:31:40;;;;;;;13.50;6.62;;;;;;;22.86;52.22;99389.03;1740791;80;21734;-40
2021/07/24 06:34:06;;;;;;;8.88;6.67;;;;;;;22.92;52.23;99388.66;1718989;83;21504;-41
2021/07/24 06:36:33;;;;;;;10.58;5.95;;;;;;;23.00;52.04;99388.42;1727418;82;21140;-41
2021/07/24 06:39:00;;;;;;;10.00;6.30;;;;;;;23.05;50.97;99394.18;1746714;82;21042;-40
2021/07/24 06:41:30;;;;;;;9.53;6.33;;;;;;;23.09;50.98;99389.30;1747344;82;21134;-41
2021/07/24 06:43:56;;;;;;;8.73;6.50;;;;;;;23.17;50.96;99392.03;1748511;82;20959;-41
2021/07/24 06:46:23;;;;;;;7.35;6.40;;;;;;;23.22;51.39;99394.24;1748494;82;21109;-41
2021/07/24 06:48:50;;;;;;;8.60;6.72;;;;;;;23.28;50.80;99393.08;1757995;80;20973;-41
2021/07/24 06:51:17;;;;;;;9.95;6.83;;;;;;;23.33;50.74;99396.03;1773965;80;21013;-40
2021/07/24 06:53:44;;;;;;;8.40;6.53;;;;;;;23.44;51.82;99400.45;1773969;80;21539;-40
2021/07/24 06:56:11;;;;;;;8.33;6.87;;;;;;;23.50;50.45;99399.48;1773977;80;20914;-41
2021/07/24 06:58:37;;;;;;;7.35;6.55;;;;;;;23.56;50.28;99396.33;1773805;80;21021;-41
2021/07/24 07:01:07;;;;;;;10.40;6.20;;;;;;;23.63;50.83;99397.45;1773905;80;21496;-41
2021/07/24 07:03:35;;;;;;;9.50;6.15;;;;;;;23.73;50.56;99396.32;1774119;80;21045;-41
2021/07/24 07:06:06;;;;;;;10.15;6.62;;;;;;;23.83;49.84;99395.80;1773901;80;21076;-40
2021/07/24 07:08:34;;;;;;;8.53;6.08;;;;;;;23.95;49.92;99394.21;1773831;80;21037;-41
2021/07/24 07:11:04;;;;;;;10.70;6.50;;;;;;;24.05;49.44;99401.38;1774070;80;21012;-41
2021/07/24 07:13:31;;;;;;;7.50;6.37;;;;;;;24.15;49.44;99390.53;1773960;80;21016;-41
2021/07/24 07:16:04;;;;;;;6.85;6.15;;;;;;;24.22;48.31;99399.98;1773979;80;21022;-41
2021/07/24 07:18:33;;;;;;;7.42;6.12;;;;;;;24.25;47.23;99392.92;1774355;80;21025;-41
2021/07/24 07:20:59;;;;;;;9.80;5.92;;;;;;;24.27;47.78;99398.02;1773903;80;21029;-41
2021/07/24 07:23:26;;;;;;;7.87;5.92;;;;;;;24.31;48.21;99390.96;1774150;80;20973;-41
2021/07/24 07:25:53;;;;;;;7.70;5.97;;;;;;;24.35;47.86;99393.77;1773840;80;20998;-41
2021/07/24 07:28:20;;;;;;;7.62;5.70;;;;;;;24.41;48.32;99396.12;1774331;80;21499;-41
2021/07/24 07:30:47;;;;;;;8.35;6.47;;;;;;;24.48;48.05;99398.64;1773994;80;21139;-41
2021/07/24 07:33:15;;;;;;;11.40;6.12;;;;;;;24.54;46.87;99397.45;1773899;80;20993;-41
2021/07/24 07:35:42;;;;;;;7.10;5.72;;;;;;;24.57;46.45;99395.92;1773957;80;21005;-41
2021/07/24 07:38:08;;;;;;;6.80;6.10;;;;;;;24.61;46.69;99400.71;1774100;80;21797;-40
2021/07/24 07:40:38;;;;;;;7.35;5.62;;;;;;;24.73;46.22;99394.94;1774165;80;21096;-41
2021/07/24 07:43:06;;;;;;;8.70;6.10;;;;;;;24.86;46.82;99400.38;1774471;80;21092;-41
2021/07/24 07:45:33;;;;;;;8.20;5.37;;;;;;;24.97;46.12;99393.84;1773867;80;21068;-41
2021/07/24 07:47:59;;;;;;;7.47;5.65;;;;;;;25.08;46.65;99399.11;1774306;80;21032;-41
2021/07/24 07:50:27;;;;;;;6.53;5.83;;;;;;;25.20;45.08;99396.69;1781344;80;21041;-41
2021/07/24 07:52:54;;;;;;;8.98;5.97;;;;;;;25.27;44.48;99397.16;1782237;80;21334;-41
2021/07/24 07:55:20;;;;;;;10.75;5.80;;;;;;;25.36;44.29;99397.21;1776162;80;21172;-42
2021/07/24 07:57:47;;;;;;;7.25;5.58;;;;;;;25.46;44.96;99395.98;1782270;80;21499;-41
2021/07/24 08:00:16;;;;;;;7.83;5.60;;;;;;;25.55;43.87;99393.11;1782153;80;21578;-42
2021/07/24 08:02:42;;;;;;;6.53;5.45;;;;;;;25.60;44.25;99394.67;1782203;80;21025;-41
2021/07/24 08:05:10;;;;;;;7.37;5.75;;;;;;;25.67;43.36;99394.97;1782197;80;21070;-41
2021/07/24 08:07:37;;;;;;;9.18;6.00;;;;;;;25.70;43.58;99394.84;1770002;80;21614;-41
2021/07/24 08:10:05;;;;;;;9.05;6.08;;;;;;;25.71;43.00;99393.58;1764075;81;21038;-42
2021/07/24 08:12:32;;;;;;;8.93;5.90;;;;;;;25.75;42.36;99397.63;1764081;81;20974;-42
2021/07/24 08:14:59;;;;;;;6.90;5.70;;;;;;;25.79;43.09;99394.07;1764226;81;21042;-41
2021/07/24 08:17:25;;;;;;;7.58;5.80;;;;;;;25.91;42.74;99394.53;1764288;81;21006;-41
2021/07/24 08:19:52;;;;;;;7.05;5.90;;;;;;;26.06;42.00;99391.91;1763849;81;21142;-41
2021/07/24 08:22:19;;;;;;;8.33;5.60;;;;;;;26.20;40.73;99402.39;1764070;81;21513;-41
2021/07/24 08:24:46;;;;;;;8.48;6.00;;;;;;;26.34;41.69;99409.51;1764273;81;20931;-41
2021/07/24 08:27:12;;;;;;;7.00;5.97;;;;;;;26.46;40.59;99401.47;1763934;81;21025;-42
2021/07/24 08:29:39;;;;;;;8.55;5.92;;;;;;;26.51;40.03;99399.45;1764120;81;21025;-42
2021/07/24 08:32:09;;;;;;;9.35;6.58;;;;;;;26.48;40.26;99396.23;1764026;81;21757;-41
2021/07/24 08:34:36;;;;;;;9.58;5.70;;;;;;;26.49;40.52;99407.48;1764134;81;21021;-41
2021/07/24 08:37:04;;;;;;;6.42;5.83;;;;;;;26.57;40.77;99400.38;1764210;81;21469;-42
2021/07/24 08:39:31;;;;;;;7.95;6.25;;;;;;;26.67;41.13;99404.68;1764389;81;21077;-42
2021/07/24 08:41:58;;;;;;;9.08;6.00;;;;;;;26.75;40.62;99396.15;1764078;81;21041;-41
2021/07/24 08:44:24;;;;;;;8.63;6.30;;;;;;;26.89;40.74;99391.33;1764014;80;21849;-42
2021/07/24 08:46:53;;;;;;;7.15;6.20;;;;;;;26.99;40.80;99395.62;1764011;81;20961;-41
2021/07/24 08:49:19;;;;;;;7.33;6.10;;;;;;;27.02;40.44;99397.45;1758295;81;21504;-42
2021/07/24 08:51:48;;;;;;;9.35;5.72;;;;;;;26.99;39.44;99399.80;1745586;82;21527;-41
2021/07/24 08:54:15;;;;;;;6.40;5.67;;;;;;;26.98;39.64;99398.25;1745527;82;21088;-41
2021/07/24 08:56:46;;;;;;;7.45;5.62;;;;;;;27.04;38.82;99390.81;1730921;82;21686;-42
2021/07/24 08:59:11;;;;;;;7.67;5.97;;;;;;;27.11;37.95;99392.50;1718985;82;21021;-41
2021/07/24 09:01:41;;;;;;;10.23;5.90;;;;;;;27.21;38.82;99397.52;1715869;83;21022;-41
2021/07/24 09:04:07;;;;;;;9.33;6.45;;;;;;;27.32;38.47;99399.02;1715759;83;21076;-42
2021/07/24 09:06:34;;;;;;;6.30;5.70;;;;;;;27.44;38.96;99389.69;1715901;83;21040;-42
2021/07/24 09:09:02;;;;;;;8.73;6.00;;;;;;;27.66;38.75;99390.95;1715658;83;21141;-41
2021/07/24 09:11:29;;;;;;;6.67;5.97;;;;;;;27.85;37.02;99392.20;1695511;83;21025;-42
2021/07/24 09:13:56;;;;;;;8.00;5.78;;;;;;;27.98;38.01;99392.09;1695410;83;21088;-41
2021/07/24 09:16:23;;;;;;;7.35;6.05;;;;;;;28.06;37.59;99389.72;1715617;83;21033;-42
2021/07/24 09:18:50;;;;;;;7.35;5.97;;;;;;;28.15;36.54;99388.89;1715923;83;21550;-42
2021/07/24 09:21:17;;;;;;;8.80;5.92;;;;;;;28.16;36.46;99395.39;1715811;83;21118;-42
2021/07/24 09:23:47;;;;;;;8.65;6.33;;;;;;;28.12;36.59;99387.84;1715594;83;21073;-41
2021/07/24 09:26:12;;;;;;;6.87;5.40;;;;;;;28.19;36.05;99389.47;1715773;82;20969;-42
2021/07/24 09:28:39;;;;;;;8.63;6.10;;;;;;;28.17;35.34;99391.36;1701137;82;21061;-42
2021/07/24 09:31:21;;;;;;;6.58;5.87;;;;;;;28.14;35.49;99381.77;1715514;82;21527;-42
2021/07/24 09:33:51;;;;;;;6.83;5.80;;;;;;;28.15;36.70;99388.27;1725624;82;21226;-42
2021/07/24 09:36:33;;;;;;;8.30;6.08;;;;;;;28.26;35.15;99382.14;1744639;82;21522;-41
2021/07/24 09:39:14;;;;;;;8.58;6.05;;;;;;;28.37;36.06;99381.70;1720473;82;21020;-41
2021/07/24 09:41:46;;;;;;;6.87;5.72;;;;;;;28.56;36.04;99386.48;1745059;82;21077;-42
2021/07/24 09:44:27;;;;;;;8.38;6.35;;;;;;;28.72;36.35;99381.82;1743048;82;21562;-41
2021/07/24 09:46:55;;;;;;;6.50;5.75;;;;;;;28.83;35.59;99384.03;1748602;82;21186;-42
2021/07/24 09:49:37;;;;;;;8.38;6.37;;;;;;;28.80;35.73;99385.77;1748789;80;21053;-41
2021/07/24 09:52:12;;;;;;;7.30;6.30;;;;;;;28.80;35.81;99383.61;1747563;81;21539;-42
2021/07/24 09:54:39;;;;;;;7.00;6.28;;;;;;;28.89;35.41;99377.30;1757906;81;20994;-42
2021/07/24 09:57:06;;;;;;;7.75;6.33;;;;;;;29.01;34.95;99376.05;1761825;81;21093;-42
2021/07/24 09:59:33;;;;;;;6.62;5.85;;;;;;;29.06;33.32;99373.97;1741431;81;21106;-42
2021/07/24 10:02:03;;;;;;;8.40;6.55;;;;;;;29.03;33.15;99372.16;1733223;82;21025;-41
2021/07/24 10:04:33;;;;;;;7.05;6.00;;;;;;;29.01;32.82;99381.00;1733620;82;21047;-42
2021/07/24 10:07:04;;;;;;;8.60;6.55;;;;;;;28.92;34.06;99383.29;1741918;81;21006;-42
2021/07/24 10:09:37;;;;;;;7.42;6.58;;;;;;;28.74;34.89;99386.92;1759975;81;20987;-42
2021/07/24 10:12:13;;;;;;;7.42;5.83;;;;;;;28.56;34.93;99389.89;1756892;81;21120;-42
2021/07/24 10:14:39;;;;;;;7.42;6.62;;;;;;;28.38;35.87;99387.42;1743363;81;20926;-41
2021/07/24 10:17:08;;;;;;;8.48;6.37;;;;;;;28.31;35.92;99378.06;1763462;81;21025;-42
2021/07/24 10:19:34;;;;;;;6.97;5.92;;;;;;;28.39;36.06;99378.44;1762853;81;21503;-42
2021/07/24 10:22:03;;;;;;;8.75;6.33;;;;;;;28.46;36.20;99383.02;1742422;81;21022;-41
2021/07/24 10:24:30;;;;;;;9.38;6.08;;;;;;;28.54;35.46;99390.37;1755828;81;21080;-42
2021/07/24 10:27:10;;;;;;;7.58;6.30;;;;;;;28.63;34.35;99388.88;1732678;82;21021;-42
2021/07/24 10:29:58;;;;;;;7.58;6.17;;;;;;;28.66;34.43;99385.11;1732033;82;21551;-42
2021/07/24 10:32:28;;;;;;;8.75;6.50;;;;;;;28.67;34.95;99375.49;1738001;81;21551;-42
2021/07/24 10:34:55;;;;;;;7.10;6.40;;;;;;;28.69;34.74;99377.19;1733161;82;21076;-42
2021/07/24 10:37:44;;;;;;;8.85;6.33;;;;;;;28.70;35.42;99373.16;1742739;81;21556;-42
2021/07/24 10:40:27;;;;;;;10.75;6.30;;;;;;;28.71;35.34;99371.13;1702513;83;21047;-41
2021/07/24 10:42:55;;;;;;;8.90;6.25;;;;;;;28.72;35.29;99365.08;1758438;81;20998;-41
2021/07/24 10:45:45;;;;;;;7.78;6.20;;;;;;;28.80;35.48;99369.66;1733342;82;21063;-42
2021/07/24 10:48:21;;;;;;;7.75;6.40;;;;;;;28.87;36.07;99370.02;1732802;82;21563;-42
2021/07/24 10:51:02;;;;;;;8.15;6.62;;;;;;;28.90;35.60;99366.90;1721659;82;21080;-42
2021/07/24 10:53:31;;;;;;;8.38;6.70;;;;;;;28.86;34.64;99367.70;1723774;82;20989;-42
2021/07/24 10:55:58;;;;;;;7.15;5.97;;;;;;;28.79;35.32;99372.30;1719971;82;21033;-41
2021/07/24 10:58:26;;;;;;;6.92;6.10;;;;;;;28.81;34.96;99369.16;1680567;85;21571;-42
2021/07/24 11:00:54;;;;;;;7.80;6.45;;;;;;;28.81;34.33;99362.80;1745509;82;21448;-39
2021/07/24 11:05:29;;;;;;;8.43;6.37;;;;;;;28.97;34.65;99368.50;1789795;79;22360;-41
2021/07/24 11:07:57;;;;;;;6.78;5.92;;;;;;;29.02;35.07;99366.42;1756249;80;21519;-40
2021/07/24 11:10:26;;;;;;;13.15;6.53;;;;;;;29.19;35.96;99361.87;1756194;81;21134;-41
2021/07/24 11:12:53;;;;;;;10.23;6.87;;;;;;;29.27;34.46;99365.78;1750384;81;21013;-41
2021/07/24 11:15:22;;;;;;;8.20;6.83;;;;;;;29.28;34.77;99363.13;1753563;81;20991;-41
2021/07/24 11:18:23;;;;;;;9.30;5.97;;;;;;;29.31;34.89;99359.39;1757281;81;21587;-41
2021/07/24 11:20:51;;;;;;;6.72;5.90;;;;;;;29.36;33.69;99358.07;1757012;81;20894;-40
2021/07/24 11:23:19;;;;;;;7.20;6.17;;;;;;;29.36;32.69;99364.28;1756856;81;21788;-41
2021/07/24 11:25:46;;;;;;;8.80;6.33;;;;;;;29.43;33.17;99363.88;1756314;81;20945;-41
2021/07/24 11:28:22;;;;;;;8.05;6.12;;;;;;;29.49;34.01;99363.30;1756551;81;21475;-41
2021/07/24 11:31:02;;;;;;;7.80;5.97;;;;;;;29.54;34.46;99365.41;1746605;81;20965;-41
2021/07/24 11:33:30;;;;;;;8.20;6.40;;;;;;;29.60;33.84;99366.25;1726705;82;21020;-40
2021/07/24 11:36:05;;;;;;;6.85;6.03;;;;;;;29.60;33.75;99369.04;1726730;83;21176;-41
2021/07/24 11:38:32;;;;;;;7.05;6.17;;;;;;;29.63;33.67;99372.24;1726623;82;20969;-41
2021/07/24 11:41:03;;;;;;;7.70;5.92;;;;;;;29.87;32.48;99374.07;1727105;83;21551;-41
2021/07/24 11:43:30;;;;;;;6.95;5.70;;;;;;;30.21;31.89;99366.19;1726523;82;20972;-41